Time;durP1;ratioP1;P1;durP2;ratioP2;P2;SDS_P1;SDS_P2;PMS_P1;PMS_P2;Temp;Humidity;BMP_temperature;BMP_pressure;BME280_temperature;BME280_humidity;BME280_pressure;Samples;Min_cycle;Max_cycle;Signal;HPM_P1;HPM_P2
2022/02/16 00:01:08;;;;;;;7.88;3.28;;;16.00;66.50;;;;;;4227147;28;20101;-68
2022/02/16 00:03:31;;;;;;;8.75;3.40;;;16.00;66.50;;;;;;4215531;28;20094;-68
2022/02/16 00:05:53;;;;;;;8.98;3.13;;;16.00;66.50;;;;;;4215530;28;20546;-68
2022/02/16 00:08:17;;;;;;;8.82;3.67;;;15.90;66.50;;;;;;4219360;28;20126;-68
2022/02/16 00:10:39;;;;;;;7.47;3.10;;;15.90;66.60;;;;;;4231232;28;20055;-68
2022/02/16 00:13:01;;;;;;;8.55;3.60;;;15.90;66.50;;;;;;4214090;28;20056;-68
2022/02/16 00:15:25;;;;;;;8.85;3.17;;;15.90;66.50;;;;;;4214251;28;20056;-68
2022/02/16 00:17:49;;;;;;;8.63;2.90;;;15.90;66.70;;;;;;4214076;28;20059;-67
2022/02/16 00:20:13;;;;;;;9.38;3.70;;;15.80;66.80;;;;;;4198521;28;20078;-68
2022/02/16 00:22:36;;;;;;;9.00;3.03;;;15.90;66.90;;;;;;4214819;28;20052;-68
2022/02/16 00:25:00;;;;;;;7.30;3.25;;;15.90;67.00;;;;;;4215279;28;20809;-67
2022/02/16 00:27:22;;;;;;;10.25;3.42;;;15.80;67.10;;;;;;4214781;28;20082;-67
2022/02/16 00:29:44;;;;;;;9.43;3.53;;;15.80;67.00;;;;;;4213811;28;20076;-67
2022/02/16 00:32:09;;;;;;;9.82;3.50;;;15.80;67.10;;;;;;4215011;28;20060;-67
2022/02/16 00:34:31;;;;;;;7.38;3.50;;;15.80;67.10;;;;;;4214965;28;20150;-67
2022/02/16 00:36:55;;;;;;;11.27;3.30;;;15.80;67.20;;;;;;4214975;28;20063;-67
2022/02/16 00:39:17;;;;;;;9.60;3.42;;;15.70;67.20;;;;;;4213755;28;20146;-67
2022/02/16 00:41:40;;;;;;;15.00;3.90;;;15.70;67.40;;;;;;4214934;28;20478;-67
2022/02/16 00:44:03;;;;;;;10.65;3.90;;;15.80;67.60;;;;;;4214390;28;20122;-67
2022/02/16 00:46:25;;;;;;;8.63;3.28;;;15.80;67.60;;;;;;4214475;28;20399;-67
2022/02/16 00:48:48;;;;;;;9.68;3.03;;;15.80;67.70;;;;;;4213648;28;20506;-67
2022/02/16 00:51:10;;;;;;;9.68;2.90;;;15.90;67.70;;;;;;4213364;28;20113;-68
2022/02/16 00:53:33;;;;;;;14.90;4.00;;;15.90;67.50;;;;;;4214702;28;20480;-68
2022/02/16 00:55:55;;;;;;;11.68;4.25;;;15.90;67.40;;;;;;4213432;28;20075;-67
2022/02/16 00:58:18;;;;;;;9.15;3.33;;;16.00;67.20;;;;;;4220684;28;20040;-68
2022/02/16 01:00:41;;;;;;;8.88;3.33;;;16.00;67.10;;;;;;4215908;28;20144;-67
2022/02/16 01:03:04;;;;;;;11.05;3.55;;;16.00;67.00;;;;;;4213335;28;20044;-67
2022/02/16 01:05:26;;;;;;;11.65;4.50;;;16.00;66.90;;;;;;4214505;28;20458;-68
2022/02/16 01:07:48;;;;;;;10.13;3.45;;;16.00;67.00;;;;;;4215342;28;20400;-69
2022/02/16 01:10:11;;;;;;;9.38;2.95;;;16.00;67.00;;;;;;4221509;28;20151;-68
2022/02/16 01:12:39;;;;;;;10.85;2.95;;;16.00;67.10;;;;;;4196650;28;20105;-69
2022/02/16 01:15:04;;;;;;;11.80;4.15;;;16.00;67.10;;;;;;4195916;28;20094;-69
2022/02/16 01:17:33;;;;;;;13.48;3.60;;;16.00;67.10;;;;;;4201746;28;20140;-69
2022/02/16 01:20:05;;;;;;;15.73;4.00;;;16.00;67.20;;;;;;4212858;28;20063;-69
2022/02/16 01:22:29;;;;;;;12.50;4.78;;;16.00;67.60;;;;;;4196210;28;20060;-68
2022/02/16 01:24:51;;;;;;;10.48;3.55;;;16.00;67.20;;;;;;4196150;28;20087;-68
2022/02/16 01:27:17;;;;;;;10.90;3.40;;;16.00;67.30;;;;;;4207477;28;20483;-67
2022/02/16 01:29:39;;;;;;;10.93;3.08;;;16.00;67.30;;;;;;4221701;28;20423;-68
2022/02/16 01:32:20;;;;;;;12.57;3.92;;;16.00;67.30;;;;;;4196275;28;20056;-68
2022/02/16 01:34:42;;;;;;;11.82;4.80;;;16.00;67.50;;;;;;4182138;28;20052;-68
2022/02/16 01:37:05;;;;;;;11.27;3.50;;;16.00;67.60;;;;;;4202009;28;20196;-68
2022/02/16 01:39:27;;;;;;;11.05;4.05;;;16.00;67.50;;;;;;4226335;28;20601;-68
2022/02/16 01:41:52;;;;;;;14.05;3.78;;;16.00;67.30;;;;;;4212829;28;20109;-69
2022/02/16 01:44:19;;;;;;;8.68;3.25;;;16.00;67.30;;;;;;4212585;28;20079;-69
2022/02/16 01:46:52;;;;;;;9.25;3.60;;;16.00;67.10;;;;;;4212554;28;20063;-69
2022/02/16 01:49:20;;;;;;;12.02;3.80;;;16.00;68.00;;;;;;4197110;28;20110;-69
2022/02/16 01:51:43;;;;;;;14.27;4.07;;;16.00;67.10;;;;;;4198175;28;20450;-69
2022/02/16 01:54:05;;;;;;;18.88;4.72;;;16.00;67.20;;;;;;4212729;28;20059;-69
2022/02/16 01:56:29;;;;;;;16.92;4.75;;;16.00;67.30;;;;;;4212729;28;20414;-69
2022/02/16 01:58:52;;;;;;;16.42;4.82;;;16.00;67.30;;;;;;4195582;28;20147;-69
2022/02/16 02:01:33;;;;;;;14.55;4.03;;;16.10;67.40;;;;;;4196437;28;20070;-69
2022/02/16 02:04:01;;;;;;;19.90;4.55;;;16.10;67.40;;;;;;4195905;28;20109;-69
2022/02/16 02:06:25;;;;;;;11.52;4.00;;;16.10;67.30;;;;;;4195911;28;20076;-69
2022/02/16 02:08:48;;;;;;;11.07;4.00;;;16.00;67.20;;;;;;4212396;28;20075;-69
2022/02/16 02:11:10;;;;;;;15.63;3.25;;;16.00;67.30;;;;;;4214885;28;20131;-69
2022/02/16 02:13:54;;;;;;;11.70;3.28;;;16.00;67.40;;;;;;4229411;28;20054;-69
2022/02/16 02:16:21;;;;;;;13.23;3.15;;;16.00;67.40;;;;;;4228917;28;20518;-69
2022/02/16 02:18:44;;;;;;;10.25;3.17;;;16.00;67.60;;;;;;4196793;28;20084;-69
2022/02/16 02:21:12;;;;;;;6.93;2.13;;;16.10;67.50;;;;;;4212033;28;20194;-69
2022/02/16 02:23:35;;;;;;;12.10;2.65;;;16.20;67.20;;;;;;4215690;28;20056;-68
2022/02/16 02:25:57;;;;;;;8.68;2.55;;;16.30;67.00;;;;;;4215808;28;20059;-68
2022/02/16 02:28:22;;;;;;;10.65;2.28;;;16.30;66.60;;;;;;4201026;28;20079;-68
2022/02/16 02:30:46;;;;;;;10.32;2.88;;;16.40;66.40;;;;;;4215528;28;20573;-68
2022/02/16 02:33:08;;;;;;;11.45;2.33;;;16.40;66.30;;;;;;4215208;28;20048;-68
2022/02/16 02:35:30;;;;;;;13.20;2.95;;;16.40;66.30;;;;;;4216789;28;20059;-68
2022/02/16 02:37:54;;;;;;;9.95;2.47;;;16.30;66.20;;;;;;4216853;28;20430;-68
2022/02/16 02:40:16;;;;;;;9.18;2.80;;;16.30;66.30;;;;;;4198704;28;20055;-68
2022/02/16 02:42:39;;;;;;;9.75;2.58;;;16.30;66.50;;;;;;4198816;28;20061;-68
2022/02/16 02:45:04;;;;;;;9.32;2.38;;;16.30;66.60;;;;;;4198685;28;20094;-67
2022/02/16 02:47:28;;;;;;;13.65;2.17;;;16.20;66.70;;;;;;4223459;28;20070;-68
2022/02/16 02:49:53;;;;;;;13.27;2.35;;;16.20;66.80;;;;;;4217279;28;20060;-68
2022/02/16 02:52:15;;;;;;;8.55;2.85;;;16.20;66.80;;;;;;4216551;28;20111;-68
2022/02/16 02:54:38;;;;;;;8.77;2.50;;;16.20;66.90;;;;;;4215478;28;20078;-68
2022/02/16 02:57:00;;;;;;;11.93;2.50;;;16.20;67.00;;;;;;4216339;28;20091;-68
2022/02/16 02:59:24;;;;;;;7.70;2.20;;;16.10;67.10;;;;;;4215466;28;20139;-67
2022/02/16 03:01:49;;;;;;;12.52;2.65;;;16.10;68.10;;;;;;4215368;28;20416;-68
2022/02/16 03:04:11;;;;;;;11.27;2.80;;;16.10;67.20;;;;;;4215530;28;20052;-68
2022/02/16 03:06:34;;;;;;;10.98;2.67;;;16.10;67.30;;;;;;4212779;28;20506;-68
2022/02/16 03:08:56;;;;;;;9.65;2.75;;;16.20;67.30;;;;;;4199487;28;20056;-68
2022/02/16 03:11:20;;;;;;;11.10;3.17;;;16.20;67.20;;;;;;4183759;28;20139;-68
2022/02/16 03:13:45;;;;;;;12.65;3.22;;;16.20;67.00;;;;;;4198175;28;20048;-68
2022/02/16 03:16:16;;;;;;;8.02;3.10;;;16.20;66.90;;;;;;4209667;28;20051;-67
2022/02/16 03:18:38;;;;;;;8.45;3.97;;;16.20;66.80;;;;;;4214589;28;20972;-68
2022/02/16 03:21:00;;;;;;;12.05;3.90;;;16.20;67.00;;;;;;4214271;28;20113;-67
2022/02/16 03:23:22;;;;;;;7.90;3.65;;;16.20;67.00;;;;;;4214751;28;20062;-67
2022/02/16 03:25:45;;;;;;;10.48;3.97;;;16.20;67.00;;;;;;4220283;28;20070;-67
2022/02/16 03:28:10;;;;;;;10.57;3.90;;;16.20;67.00;;;;;;4226982;28;20553;-67
2022/02/16 03:30:34;;;;;;;8.95;4.65;;;16.20;67.10;;;;;;4215058;28;20060;-67
2022/02/16 03:33:15;;;;;;;8.20;4.30;;;16.20;67.20;;;;;;4214264;28;20544;-67
2022/02/16 03:35:37;;;;;;;8.90;4.57;;;16.10;67.30;;;;;;4200301;28;20048;-67
2022/02/16 03:38:04;;;;;;;11.23;4.88;;;16.10;67.40;;;;;;4231719;28;20058;-67
2022/02/16 03:40:26;;;;;;;13.48;5.35;;;16.10;67.50;;;;;;4231695;28;20465;-67
2022/02/16 03:42:49;;;;;;;7.38;5.57;;;16.10;67.50;;;;;;4231685;28;20090;-67
2022/02/16 03:45:12;;;;;;;9.13;5.95;;;16.10;67.70;;;;;;4229344;28;20047;-68
2022/02/16 03:47:46;;;;;;;7.80;6.20;;;16.00;67.60;;;;;;4226499;28;20098;-69
2022/02/16 03:50:09;;;;;;;7.80;5.88;;;16.00;67.70;;;;;;4197796;28;20075;-69
2022/02/16 03:52:32;;;;;;;11.00;6.75;;;16.00;67.80;;;;;;4197199;28;20040;-69
2022/02/16 03:54:54;;;;;;;9.20;6.95;;;16.00;67.80;;;;;;4198680;28;20055;-68
2022/02/16 03:57:17;;;;;;;9.75;7.15;;;16.00;67.90;;;;;;4232280;28;20055;-67
2022/02/16 03:59:39;;;;;;;10.60;6.93;;;16.00;67.90;;;;;;4231193;28;20144;-68
2022/02/16 04:02:21;;;;;;;8.15;6.57;;;16.00;68.00;;;;;;4230963;28;20047;-68
2022/02/16 04:04:44;;;;;;;7.68;6.50;;;16.00;68.00;;;;;;4232065;28;20081;-68
2022/02/16 04:07:06;;;;;;;7.68;6.85;;;16.00;68.00;;;;;;4231336;28;20052;-68
2022/02/16 04:09:29;;;;;;;9.70;6.43;;;16.00;68.00;;;;;;4231421;28;20140;-68
2022/02/16 04:11:55;;;;;;;8.60;7.18;;;16.00;68.00;;;;;;4230706;28;20051;-68
2022/02/16 04:14:18;;;;;;;7.85;7.15;;;16.00;68.10;;;;;;4231012;28;20101;-68
2022/02/16 04:16:41;;;;;;;11.30;8.27;;;16.10;68.10;;;;;;4216874;28;20408;-68
2022/02/16 04:19:05;;;;;;;7.65;6.95;;;16.20;67.80;;;;;;4213646;28;20052;-68
2022/02/16 04:21:27;;;;;;;7.97;7.18;;;16.30;67.50;;;;;;4213963;28;20090;-68
2022/02/16 04:23:49;;;;;;;8.25;7.43;;;16.40;67.10;;;;;;4214066;28;20075;-68
2022/02/16 04:26:12;;;;;;;9.65;6.85;;;16.40;67.70;;;;;;4222451;28;20055;-68
2022/02/16 04:28:38;;;;;;;7.40;6.70;;;16.50;67.50;;;;;;4213477;28;20119;-68
2022/02/16 04:31:00;;;;;;;8.25;7.40;;;16.50;66.50;;;;;;4213907;28;20427;-69
2022/02/16 04:33:24;;;;;;;7.90;7.20;;;16.50;66.50;;;;;;4212873;28;20155;-68
2022/02/16 04:35:47;;;;;;;8.15;6.93;;;16.50;66.50;;;;;;4200869;28;20132;-68
2022/02/16 04:38:10;;;;;;;8.10;7.40;;;16.50;66.70;;;;;;4198132;28;20083;-69
2022/02/16 04:40:32;;;;;;;8.00;7.20;;;16.40;66.70;;;;;;4198565;28;20063;-68
2022/02/16 04:42:55;;;;;;;7.75;7.05;;;16.40;66.90;;;;;;4198446;28;20539;-68
2022/02/16 04:45:17;;;;;;;8.07;7.47;;;16.40;67.10;;;;;;4196097;28;20102;-68
2022/02/16 04:47:39;;;;;;;7.88;7.18;;;16.40;67.40;;;;;;4221871;28;20402;-68
2022/02/16 04:50:03;;;;;;;7.75;7.05;;;16.40;67.40;;;;;;4214915;28;20536;-68
2022/02/16 04:52:34;;;;;;;6.72;6.13;;;16.40;67.20;;;;;;4215148;28;20113;-68
2022/02/16 04:55:08;;;;;;;7.95;7.25;;;16.40;67.10;;;;;;4181962;28;20406;-68
2022/02/16 04:57:31;;;;;;;8.15;7.45;;;16.50;67.00;;;;;;4181832;28;20060;-68
2022/02/16 04:59:58;;;;;;;7.57;6.88;;;16.40;66.90;;;;;;4195764;28;20135;-68
2022/02/16 05:02:21;;;;;;;7.30;6.70;;;16.50;67.00;;;;;;4181654;28;20049;-68
2022/02/16 05:04:43;;;;;;;6.40;5.78;;;16.40;67.00;;;;;;4214877;28;20479;-68
2022/02/16 05:07:06;;;;;;;6.82;6.25;;;16.40;67.10;;;;;;4211619;28;20059;-68
2022/02/16 05:09:29;;;;;;;7.07;6.47;;;16.30;68.10;;;;;;4196180;28;20512;-68
2022/02/16 05:11:52;;;;;;;7.05;6.35;;;16.30;67.40;;;;;;4196511;28;20056;-68
2022/02/16 05:14:15;;;;;;;8.13;5.78;;;16.30;67.60;;;;;;4213595;28;20087;-68
2022/02/16 05:16:41;;;;;;;6.85;5.85;;;16.20;67.70;;;;;;4217666;28;20097;-68
2022/02/16 05:19:04;;;;;;;6.47;5.88;;;16.20;67.90;;;;;;4213193;28;20052;-68
2022/02/16 05:21:34;;;;;;;6.32;5.75;;;16.20;68.00;;;;;;4213168;28;20667;-68
2022/02/16 05:23:58;;;;;;;6.75;6.07;;;16.20;68.10;;;;;;4199189;28;20421;-68
2022/02/16 05:26:22;;;;;;;7.07;6.38;;;16.20;68.20;;;;;;4212191;28;20090;-67
2022/02/16 05:28:45;;;;;;;8.15;7.25;;;16.10;68.30;;;;;;4212919;28;20056;-67
2022/02/16 05:31:08;;;;;;;6.03;5.47;;;16.10;68.30;;;;;;4213026;28;20056;-68
2022/02/16 05:33:30;;;;;;;5.80;5.10;;;16.10;68.60;;;;;;4217038;28;20044;-67
2022/02/16 05:35:52;;;;;;;5.28;4.88;;;16.10;68.70;;;;;;4229531;28;20055;-67
2022/02/16 05:38:15;;;;;;;5.70;5.22;;;16.20;68.60;;;;;;4229472;28;20059;-69
2022/02/16 05:40:38;;;;;;;6.90;5.25;;;16.30;68.30;;;;;;4228950;28;20104;-67
2022/02/16 05:43:01;;;;;;;5.78;5.28;;;16.30;67.90;;;;;;4229275;28;20063;-67
2022/02/16 05:45:25;;;;;;;5.03;4.53;;;16.40;67.70;;;;;;4196182;28;20130;-68
2022/02/16 05:47:48;;;;;;;4.20;3.88;;;16.40;67.60;;;;;;4196126;28;20141;-68
2022/02/16 05:50:11;;;;;;;4.78;4.40;;;16.40;67.50;;;;;;4196405;28;20131;-68
2022/02/16 05:52:33;;;;;;;4.22;3.92;;;16.50;67.40;;;;;;4196245;28;20139;-68
2022/02/16 05:54:55;;;;;;;4.25;3.85;;;16.50;67.30;;;;;;4196209;28;20419;-68
2022/02/16 05:57:17;;;;;;;4.13;3.63;;;16.40;67.30;;;;;;4196791;28;20159;-67
2022/02/16 05:59:41;;;;;;;5.70;3.70;;;16.40;67.40;;;;;;4196225;28;20098;-68
2022/02/16 06:02:04;;;;;;;4.85;4.32;;;16.40;67.40;;;;;;4195995;28;20080;-67
2022/02/16 06:04:27;;;;;;;4.80;4.30;;;16.40;67.50;;;;;;4224931;28;20047;-67
2022/02/16 06:06:50;;;;;;;3.42;3.05;;;16.50;67.50;;;;;;4229269;28;20059;-67
2022/02/16 06:09:12;;;;;;;3.15;2.95;;;16.50;67.50;;;;;;4229709;28;20079;-67
2022/02/16 06:11:36;;;;;;;3.30;3.10;;;16.40;67.50;;;;;;4229151;28;20093;-69
2022/02/16 06:14:06;;;;;;;3.70;3.50;;;16.50;67.60;;;;;;4215603;28;20093;-68
2022/02/16 06:16:31;;;;;;;3.42;3.22;;;16.50;67.50;;;;;;4212693;28;20179;-68
2022/02/16 06:18:54;;;;;;;6.00;3.42;;;16.50;67.40;;;;;;4212514;28;20079;-68
2022/02/16 06:21:18;;;;;;;3.55;3.33;;;16.50;67.50;;;;;;4216341;28;20058;-68
2022/02/16 06:23:43;;;;;;;3.40;3.20;;;16.50;67.50;;;;;;4229264;28;20079;-68
2022/02/16 06:26:05;;;;;;;3.25;3.05;;;16.40;67.50;;;;;;4230379;28;20109;-67
2022/02/16 06:28:28;;;;;;;3.63;3.30;;;16.40;67.70;;;;;;4228920;28;20054;-67
2022/02/16 06:30:51;;;;;;;3.58;3.30;;;16.40;67.80;;;;;;4229194;28;20650;-67
2022/02/16 06:33:16;;;;;;;3.97;3.67;;;16.30;68.00;;;;;;4229937;28;20048;-67
2022/02/16 06:35:39;;;;;;;4.03;3.83;;;16.30;68.10;;;;;;4229528;28;20108;-67
2022/02/16 06:38:02;;;;;;;3.88;3.58;;;16.20;68.30;;;;;;4229408;28;20421;-67
2022/02/16 06:40:27;;;;;;;3.45;3.25;;;16.20;68.40;;;;;;4229425;28;20058;-68
2022/02/16 06:42:51;;;;;;;4.25;3.70;;;16.20;68.70;;;;;;4212308;28;20074;-67
2022/02/16 06:45:16;;;;;;;4.25;3.85;;;16.20;68.90;;;;;;4212574;28;20052;-68
2022/02/16 06:47:42;;;;;;;3.53;3.33;;;16.20;69.00;;;;;;4212201;28;20176;-67
2022/02/16 06:50:08;;;;;;;3.78;3.58;;;16.20;68.80;;;;;;4212239;28;20127;-68
2022/02/16 06:52:31;;;;;;;3.30;3.17;;;16.30;68.70;;;;;;4227947;28;20437;-67
2022/02/16 06:54:55;;;;;;;3.65;3.45;;;16.30;68.50;;;;;;4229152;28;20062;-68
2022/02/16 06:57:18;;;;;;;3.10;2.90;;;16.30;68.40;;;;;;4229223;28;20158;-68
2022/02/16 06:59:50;;;;;;;3.28;2.95;;;16.30;68.40;;;;;;4218230;28;20545;-68
2022/02/16 07:02:13;;;;;;;2.83;2.72;;;16.30;68.50;;;;;;4195675;28;20057;-68
2022/02/16 07:04:36;;;;;;;2.55;2.45;;;16.40;68.40;;;;;;4195537;28;20056;-68
2022/02/16 07:07:02;;;;;;;2.97;2.78;;;16.40;68.20;;;;;;4195576;28;20052;-68
2022/02/16 07:09:24;;;;;;;3.15;2.95;;;16.40;68.00;;;;;;4205841;28;20097;-68
2022/02/16 07:11:47;;;;;;;3.33;2.42;;;16.50;68.10;;;;;;4232359;28;20079;-66
2022/02/16 07:14:10;;;;;;;2.40;2.30;;;16.50;68.50;;;;;;4231633;28;20055;-67
2022/02/16 07:16:32;;;;;;;2.22;2.13;;;16.60;68.30;;;;;;4231583;28;20130;-67
2022/02/16 07:18:54;;;;;;;2.13;1.98;;;16.60;68.00;;;;;;4232073;28;20094;-67
2022/02/16 07:21:23;;;;;;;1.83;1.73;;;16.60;67.80;;;;;;4201543;28;20062;-67
2022/02/16 07:23:48;;;;;;;1.70;1.70;;;16.60;67.70;;;;;;4214903;28;20128;-66
2022/02/16 07:26:15;;;;;;;1.70;1.60;;;16.60;67.70;;;;;;4214955;28;20048;-66
2022/02/16 07:28:37;;;;;;;1.45;1.45;;;16.60;67.80;;;;;;4215021;28;20815;-65
2022/02/16 07:30:59;;;;;;;1.10;1.10;;;16.50;67.90;;;;;;4214364;28;20429;-67
2022/02/16 07:33:23;;;;;;;3.28;1.08;;;16.50;67.90;;;;;;4214876;28;20413;-66
2022/02/16 07:35:48;;;;;;;1.20;1.20;;;16.50;68.30;;;;;;4214910;28;20081;-65
2022/02/16 07:38:10;;;;;;;2.65;0.90;;;16.50;68.50;;;;;;4215055;28;20052;-65
2022/02/16 07:40:34;;;;;;;0.70;0.70;;;16.50;68.70;;;;;;4227200;28;20054;-65
2022/02/16 07:42:57;;;;;;;0.93;0.90;;;16.50;68.60;;;;;;4232518;28;20051;-65
2022/02/16 07:45:22;;;;;;;0.90;0.90;;;16.40;69.50;;;;;;4232440;28;20100;-65
2022/02/16 07:47:46;;;;;;;1.58;1.00;;;16.40;69.00;;;;;;4230875;28;20048;-66
2022/02/16 07:50:09;;;;;;;1.02;0.90;;;16.40;70.50;;;;;;4222647;28;20052;-65
2022/02/16 07:52:50;;;;;;;1.85;0.70;;;16.40;70.10;;;;;;4215545;28;20121;-66
2022/02/16 07:55:20;;;;;;;4.30;1.17;;;16.40;70.10;;;;;;4214735;28;20547;-66
2022/02/16 07:57:44;;;;;;;1.48;0.70;;;16.40;70.10;;;;;;4214497;28;20087;-65
2022/02/16 08:00:08;;;;;;;2.05;0.73;;;16.30;70.10;;;;;;4226260;28;20108;-65
2022/02/16 08:02:39;;;;;;;1.02;1.02;;;16.30;70.20;;;;;;4231123;27;20499;-66
2022/02/16 08:05:03;;;;;;;2.90;0.70;;;16.30;70.50;;;;;;4231118;28;20051;-68
2022/02/16 08:07:26;;;;;;;0.80;0.80;;;16.40;70.30;;;;;;4216800;28;20052;-67
2022/02/16 08:09:48;;;;;;;3.53;1.05;;;16.50;70.00;;;;;;4222973;28;20094;-67
2022/02/16 08:12:12;;;;;;;0.50;0.50;;;16.50;69.60;;;;;;4214453;28;20431;-67
2022/02/16 08:14:36;;;;;;;1.45;0.50;;;16.60;69.30;;;;;;4214001;28;20087;-67
2022/02/16 08:16:59;;;;;;;0.50;0.50;;;16.60;69.00;;;;;;4215389;28;20226;-66
2022/02/16 08:19:24;;;;;;;0.63;0.63;;;16.70;68.90;;;;;;4213400;28;20051;-67
2022/02/16 08:21:46;;;;;;;0.82;0.68;;;16.60;68.80;;;;;;4215353;28;20058;-67
2022/02/16 08:24:10;;;;;;;0.40;0.40;;;16.60;68.90;;;;;;4224445;28;20071;-67
2022/02/16 08:26:33;;;;;;;0.20;0.20;;;16.60;68.80;;;;;;4225083;28;20051;-66
2022/02/16 08:28:57;;;;;;;0.60;0.60;;;16.60;69.00;;;;;;4216706;28;21282;-66
2022/02/16 08:31:22;;;;;;;0.30;0.30;;;16.60;69.00;;;;;;4230652;28;20067;-66
2022/02/16 08:34:05;;;;;;;0.32;0.30;;;16.50;69.10;;;;;;4216463;28;20051;-66
2022/02/16 08:36:40;;;;;;;0.22;0.22;;;16.50;69.30;;;;;;4219756;28;20054;-66
2022/02/16 08:39:03;;;;;;;0.60;0.30;;;16.50;69.60;;;;;;4198264;28;20063;-66
2022/02/16 08:41:25;;;;;;;0.20;0.20;;;16.40;69.80;;;;;;4220185;28;20052;-67
2022/02/16 08:43:47;;;;;;;0.45;0.30;;;16.50;69.70;;;;;;4227478;28;20051;-66
2022/02/16 08:46:10;;;;;;;0.20;0.20;;;16.50;69.50;;;;;;4218601;28;20056;-66
2022/02/16 08:48:34;;;;;;;0.15;0.15;;;16.60;69.40;;;;;;4202340;28;20472;-67
2022/02/16 08:50:58;;;;;;;0.20;0.20;;;16.60;69.50;;;;;;4212523;28;20503;-66
2022/02/16 08:53:20;;;;;;;0.45;0.25;;;16.70;69.40;;;;;;4231847;28;20051;-65
2022/02/16 08:55:42;;;;;;;0.20;0.20;;;16.80;69.30;;;;;;4212527;28;20063;-65
2022/02/16 08:58:05;;;;;;;0.20;0.20;;;16.90;68.80;;;;;;4214616;28;20123;-65
2022/02/16 09:00:28;;;;;;;0.20;0.20;;;17.20;68.10;;;;;;4214744;28;20048;-66
2022/02/16 09:02:51;;;;;;;0.52;0.20;;;17.40;67.00;;;;;;4214653;28;20051;-66
2022/02/16 09:05:15;;;;;;;0.20;0.20;;;17.50;66.30;;;;;;4214635;28;20062;-66
2022/02/16 09:07:39;;;;;;;0.77;0.20;;;17.60;66.10;;;;;;4213550;28;20070;-66
2022/02/16 09:10:02;;;;;;;0.32;0.30;;;17.70;65.70;;;;;;4211442;28;20461;-66
2022/02/16 09:12:25;;;;;;;0.55;0.30;;;17.70;65.60;;;;;;4197676;28;20514;-64
2022/02/16 09:14:47;;;;;;;0.30;0.30;;;17.60;65.80;;;;;;4197439;28;20510;-66
2022/02/16 09:17:10;;;;;;;0.40;0.40;;;17.60;66.00;;;;;;4197529;28;20056;-63
2022/02/16 09:19:34;;;;;;;0.60;0.43;;;17.50;66.20;;;;;;4214938;28;20665;-63
2022/02/16 09:21:58;;;;;;;1.10;0.40;;;17.40;66.60;;;;;;4222106;28;20175;-62
2022/02/16 09:24:21;;;;;;;0.75;0.65;;;17.40;66.90;;;;;;4229764;28;20070;-62
2022/02/16 09:26:49;;;;;;;1.27;0.52;;;17.30;67.30;;;;;;4224327;28;20055;-63
2022/02/16 09:29:11;;;;;;;2.05;0.77;;;17.20;67.60;;;;;;4214291;28;20108;-63
2022/02/16 09:31:34;;;;;;;2.95;1.13;;;17.10;68.10;;;;;;4204179;28;20054;-63
2022/02/16 09:33:56;;;;;;;2.58;1.05;;;17.10;68.40;;;;;;4224106;28;20533;-64
2022/02/16 09:36:19;;;;;;;3.70;1.02;;;17.10;68.60;;;;;;4208671;28;20056;-63
2022/02/16 09:38:42;;;;;;;6.15;1.58;;;17.00;68.60;;;;;;4214685;28;20048;-63
2022/02/16 09:41:08;;;;;;;4.20;1.15;;;17.00;69.00;;;;;;4214011;28;20080;-63
2022/02/16 09:43:30;;;;;;;2.65;1.38;;;17.00;70.10;;;;;;4226763;28;20426;-63
2022/02/16 09:45:55;;;;;;;3.80;1.45;;;16.90;69.30;;;;;;4230776;28;20483;-63
2022/02/16 09:48:18;;;;;;;11.82;1.08;;;16.90;69.60;;;;;;4230620;28;20104;-63
2022/02/16 09:50:40;;;;;;;3.58;1.83;;;16.90;69.70;;;;;;4230712;28;20051;-63
2022/02/16 09:53:03;;;;;;;7.63;1.88;;;16.90;70.00;;;;;;4218888;28;20047;-63
2022/02/16 09:55:27;;;;;;;3.78;1.40;;;16.80;70.00;;;;;;4213895;28;20060;-62
2022/02/16 09:57:49;;;;;;;5.78;1.55;;;16.80;70.30;;;;;;4213858;28;20454;-63
2022/02/16 10:00:15;;;;;;;4.50;1.55;;;16.70;70.40;;;;;;4213843;28;20109;-63
2022/02/16 10:02:39;;;;;;;5.65;1.58;;;16.70;70.70;;;;;;4219704;28;20112;-63
2022/02/16 10:05:02;;;;;;;4.50;1.40;;;16.60;71.00;;;;;;4230606;28;20062;-63
2022/02/16 10:07:26;;;;;;;9.52;1.88;;;16.60;71.30;;;;;;4230478;28;20052;-62
2022/02/16 10:09:48;;;;;;;7.03;1.83;;;16.70;72.30;;;;;;4226666;28;20046;-63
2022/02/16 10:12:11;;;;;;;6.15;1.42;;;16.70;71.30;;;;;;4214851;28;20052;-63
2022/02/16 10:14:36;;;;;;;6.88;1.88;;;16.70;71.30;;;;;;4213506;28;20476;-63
2022/02/16 10:17:02;;;;;;;11.07;1.95;;;16.80;71.20;;;;;;4213787;28;20067;-63
2022/02/16 10:19:24;;;;;;;6.20;1.40;;;16.80;71.00;;;;;;4213688;28;20085;-62
2022/02/16 10:22:06;;;;;;;7.25;1.83;;;16.90;70.70;;;;;;4205157;28;20066;-63
2022/02/16 10:24:28;;;;;;;9.25;1.83;;;17.00;70.50;;;;;;4213384;28;20098;-63
2022/02/16 10:26:52;;;;;;;9.15;1.50;;;17.10;70.10;;;;;;4213524;28;20074;-62
2022/02/16 10:29:20;;;;;;;8.32;2.25;;;17.10;70.00;;;;;;4213587;28;20047;-62
2022/02/16 10:31:42;;;;;;;8.50;1.30;;;17.10;70.00;;;;;;4228414;28;20055;-62
2022/02/16 10:34:06;;;;;;;7.93;1.73;;;17.10;70.00;;;;;;4230268;28;20052;-63
2022/02/16 10:36:31;;;;;;;5.97;1.88;;;17.10;70.10;;;;;;4230242;28;20126;-62
2022/02/16 10:38:55;;;;;;;14.20;2.58;;;17.10;70.00;;;;;;4230242;28;20125;-62
2022/02/16 10:41:18;;;;;;;1.38;0.75;;;17.10;70.30;;;;;;4199659;28;20488;-63
2022/02/16 10:43:40;;;;;;;8.48;1.75;;;17.00;70.20;;;;;;4215667;28;20063;-63
2022/02/16 10:46:17;;;;;;;8.43;2.03;;;17.00;70.30;;;;;;4221017;28;20093;-64
2022/02/16 10:48:39;;;;;;;6.45;1.63;;;17.00;70.50;;;;;;4216122;28;20105;-63
2022/02/16 10:51:05;;;;;;;7.47;1.55;;;16.90;70.70;;;;;;4216662;28;20058;-63
2022/02/16 10:53:29;;;;;;;5.35;1.30;;;16.90;71.00;;;;;;4216961;28;20052;-63
2022/02/16 10:55:51;;;;;;;11.95;2.45;;;16.90;71.30;;;;;;4215904;28;20061;-63
2022/02/16 10:58:15;;;;;;;4.30;1.48;;;16.80;71.50;;;;;;4220173;28;20052;-63
2022/02/16 11:00:39;;;;;;;7.22;1.60;;;16.70;71.70;;;;;;4216537;28;20052;-63
2022/02/16 11:03:05;;;;;;;5.63;1.50;;;16.70;71.90;;;;;;4216487;28;20063;-63
2022/02/16 11:05:28;;;;;;;7.22;1.70;;;16.60;72.20;;;;;;4216516;28;20043;-63
2022/02/16 11:07:52;;;;;;;5.95;1.48;;;16.60;72.60;;;;;;4216364;28;20059;-62
2022/02/16 11:10:15;;;;;;;4.97;1.20;;;16.50;72.90;;;;;;4213823;28;20048;-62
2022/02/16 11:12:38;;;;;;;12.98;2.13;;;16.50;73.10;;;;;;4213757;28;20052;-63
2022/02/16 11:15:02;;;;;;;7.28;1.85;;;16.50;73.40;;;;;;4214513;28;20099;-64
2022/02/16 11:17:24;;;;;;;6.95;1.65;;;16.40;73.40;;;;;;4217821;28;20056;-63
2022/02/16 11:19:48;;;;;;;5.18;1.85;;;16.40;73.60;;;;;;4216338;28;20052;-63
2022/02/16 11:22:13;;;;;;;27.00;4.78;;;16.40;73.80;;;;;;4216284;28;20054;-62
2022/02/16 11:24:37;;;;;;;7.55;1.83;;;16.40;74.00;;;;;;4216666;28;20079;-62
2022/02/16 11:27:00;;;;;;;9.63;2.03;;;16.30;74.10;;;;;;4232655;28;20128;-61
2022/02/16 11:29:42;;;;;;;6.35;1.60;;;16.30;74.40;;;;;;4232880;28;20055;-63
2022/02/16 11:32:21;;;;;;;10.27;1.90;;;16.30;74.60;;;;;;4230590;28;20506;-61
2022/02/16 11:34:46;;;;;;;11.57;2.33;;;16.20;74.70;;;;;;4232716;28;20134;-61
2022/02/16 11:37:11;;;;;;;9.85;2.15;;;16.20;74.80;;;;;;4214487;28;20103;-61
2022/02/16 11:39:59;;;;;;;7.85;1.73;;;16.20;75.00;;;;;;4214927;28;20124;-62
2022/02/16 11:42:41;;;;;;;8.38;1.63;;;16.10;75.20;;;;;;4215316;28;20074;-62
2022/02/16 11:45:05;;;;;;;9.93;1.55;;;16.10;75.30;;;;;;4215849;28;20654;-61
2022/02/16 11:47:51;;;;;;;7.30;1.70;;;16.10;75.40;;;;;;4215814;28;20517;-62
2022/02/16 11:50:40;;;;;;;7.00;2.22;;;16.10;75.60;;;;;;4215754;28;20565;-62
2022/02/16 11:53:05;;;;;;;7.38;1.73;;;16.10;75.70;;;;;;4217147;28;20142;-62
2022/02/16 11:55:29;;;;;;;8.05;1.65;;;16.00;75.70;;;;;;4217683;28;20532;-62
2022/02/16 11:57:53;;;;;;;5.75;1.30;;;16.00;75.80;;;;;;4215944;28;20055;-62
2022/02/16 12:00:33;;;;;;;4.57;1.20;;;16.00;75.90;;;;;;4215212;28;20578;-63
2022/02/16 12:03:15;;;;;;;5.53;1.70;;;16.00;76.40;;;;;;4217870;28;20059;-62
2022/02/16 12:05:49;;;;;;;7.32;1.73;;;16.00;76.50;;;;;;4200997;28;20582;-63
2022/02/16 12:08:14;;;;;;;8.05;1.45;;;16.10;76.60;;;;;;4215575;28;20058;-63
2022/02/16 12:10:41;;;;;;;7.72;1.73;;;16.10;76.50;;;;;;4215537;28;20056;-62
2022/02/16 12:13:04;;;;;;;6.85;1.45;;;16.10;76.40;;;;;;4218499;28;20044;-63
2022/02/16 12:15:38;;;;;;;8.70;1.75;;;16.20;76.40;;;;;;4220471;28;20079;-63
2022/02/16 12:18:01;;;;;;;6.22;1.58;;;16.20;76.40;;;;;;4215357;28;20052;-62
2022/02/16 12:20:25;;;;;;;6.13;1.67;;;16.20;76.30;;;;;;4215316;28;20098;-62
2022/02/16 12:22:47;;;;;;;7.85;1.88;;;16.20;76.50;;;;;;4215313;28;20066;-63
2022/02/16 12:25:14;;;;;;;5.47;1.48;;;16.20;76.40;;;;;;4214093;28;20047;-62
2022/02/16 12:27:36;;;;;;;4.60;1.52;;;16.30;76.30;;;;;;4212213;28;20055;-63
2022/02/16 12:30:02;;;;;;;7.88;1.50;;;16.30;75.90;;;;;;4212464;28;20105;-63
2022/02/16 12:32:25;;;;;;;9.63;1.52;;;16.40;75.60;;;;;;4214855;28;20062;-63